Time;durP1;ratioP1;P1;durP2;ratioP2;P2;SDS_P1;SDS_P2;PMS_P1;PMS_P2;Temp;Humidity;BMP_temperature;BMP_pressure;BME280_temperature;BME280_humidity;BME280_pressure;Samples;Min_cycle;Max_cycle;Signal;HPM_P1;HPM_P2
2023/06/24 00:00:30;;;;;;;3.30;1.42;;;20.90;99.90;;;;;;4127184;28;20034;-63
2023/06/24 00:02:32;;;;;;;6.07;1.40;;;20.90;99.90;;;;;;4127880;28;20486;-67
2023/06/24 00:04:33;;;;;;;3.17;1.02;;;20.80;99.90;;;;;;4127681;28;20089;-70
2023/06/24 00:06:34;;;;;;;2.42;1.27;;;20.80;99.90;;;;;;4127685;28;20085;-72
2023/06/24 00:08:36;;;;;;;6.22;1.35;;;20.80;99.90;;;;;;4128051;28;20142;-67
2023/06/24 00:10:37;;;;;;;3.40;1.67;;;20.80;99.90;;;;;;4127052;28;20050;-67
2023/06/24 00:12:39;;;;;;;7.43;1.65;;;20.80;99.90;;;;;;4128720;28;20096;-67
2023/06/24 00:14:40;;;;;;;4.20;1.35;;;20.70;99.90;;;;;;4126427;28;20050;-61
2023/06/24 00:16:41;;;;;;;4.80;1.67;;;20.70;99.90;;;;;;4128197;28;20085;-65
2023/06/24 00:18:42;;;;;;;3.17;1.20;;;20.70;99.90;;;;;;4127257;28;20356;-62
2023/06/24 00:20:43;;;;;;;3.22;1.30;;;20.60;99.90;;;;;;4128157;28;20093;-67
2023/06/24 00:22:48;;;;;;;6.28;1.23;;;20.60;99.90;;;;;;4126088;28;20317;-64
2023/06/24 00:24:50;;;;;;;5.13;1.58;;;20.60;99.90;;;;;;4127972;28;20181;-62
2023/06/24 00:26:55;;;;;;;4.30;1.40;;;20.60;99.90;;;;;;4127389;28;20070;-63
2023/06/24 00:28:56;;;;;;;3.22;1.20;;;20.60;99.90;;;;;;4127528;28;20101;-61
2023/06/24 00:30:59;;;;;;;9.02;1.98;;;20.60;99.90;;;;;;4127239;28;20038;-66
2023/06/24 00:33:00;;;;;;;5.03;1.20;;;20.60;99.90;;;;;;4126065;28;20069;-64
2023/06/24 00:35:01;;;;;;;4.78;1.40;;;20.50;99.90;;;;;;4127141;28;20487;-63
2023/06/24 00:37:02;;;;;;;5.22;2.20;;;20.50;99.90;;;;;;4129288;28;20440;-67
2023/06/24 00:39:05;;;;;;;6.40;1.80;;;20.40;99.90;;;;;;4129840;28;20022;-63
2023/06/24 00:41:07;;;;;;;10.05;2.38;;;20.40;99.90;;;;;;4130465;28;20085;-70
2023/06/24 00:43:09;;;;;;;6.82;1.27;;;20.30;99.90;;;;;;4130572;28;20089;-68
2023/06/24 00:45:11;;;;;;;8.43;1.27;;;20.30;99.90;;;;;;4129930;28;20030;-62
2023/06/24 00:47:13;;;;;;;5.32;1.45;;;20.30;99.90;;;;;;4130822;28;20031;-66
2023/06/24 00:49:14;;;;;;;2.67;1.30;;;20.30;99.90;;;;;;4129773;28;20030;-61
2023/06/24 00:51:16;;;;;;;4.40;1.10;;;20.30;99.90;;;;;;4130321;28;20038;-63
2023/06/24 00:53:18;;;;;;;2.22;1.25;;;20.30;99.90;;;;;;4129081;28;20065;-65
2023/06/24 00:55:22;;;;;;;2.50;1.08;;;20.30;99.90;;;;;;4130568;28;20055;-61
2023/06/24 00:57:23;;;;;;;4.35;1.45;;;20.30;99.90;;;;;;4129510;28;20026;-67
2023/06/24 00:59:28;;;;;;;4.43;1.30;;;20.30;99.90;;;;;;4130128;28;20050;-63
2023/06/24 01:01:35;;;;;;;7.50;1.30;;;20.40;99.90;;;;;;4129727;28;20036;-62
2023/06/24 01:03:38;;;;;;;3.78;1.30;;;20.40;99.90;;;;;;4130121;28;20141;-69
2023/06/24 01:05:44;;;;;;;5.07;1.10;;;20.40;99.90;;;;;;4129557;28;20030;-69
2023/06/24 01:07:54;;;;;;;4.18;1.25;;;20.50;99.90;;;;;;4130705;28;20085;-63
2023/06/24 01:09:56;;;;;;;3.83;1.17;;;20.50;99.90;;;;;;4129634;28;20026;-62
2023/06/24 01:11:57;;;;;;;3.00;1.02;;;20.50;99.90;;;;;;4129897;28;20396;-65
2023/06/24 01:13:59;;;;;;;3.20;1.20;;;20.50;99.90;;;;;;4128828;28;20466;-63
2023/06/24 01:16:06;;;;;;;3.30;1.10;;;20.50;99.90;;;;;;4130023;28;20337;-63
2023/06/24 01:18:13;;;;;;;3.88;1.52;;;20.50;99.90;;;;;;4129758;28;20085;-62
2023/06/24 01:20:46;;;;;;;3.70;0.90;;;20.50;99.90;;;;;;4129854;28;20027;-63
2023/06/24 01:23:22;;;;;;;4.72;1.13;;;20.50;99.90;;;;;;4129101;28;20034;-69
2023/06/24 01:25:23;;;;;;;6.47;2.33;;;20.50;99.90;;;;;;4118662;28;20097;-65
2023/06/24 01:28:02;;;;;;;4.82;1.70;;;20.40;99.90;;;;;;4128856;28;20097;-64
2023/06/24 01:30:30;;;;;;;3.55;1.27;;;20.40;99.90;;;;;;4129288;28;20491;-61
2023/06/24 01:32:42;;;;;;;5.60;1.00;;;20.30;99.90;;;;;;4129209;28;20426;-64
2023/06/24 01:35:00;;;;;;;6.30;1.38;;;20.40;99.90;;;;;;4130246;28;20038;-66
2023/06/24 01:37:09;;;;;;;5.85;1.15;;;20.40;99.90;;;;;;4128722;28;20026;-64
2023/06/24 01:39:14;;;;;;;3.58;1.60;;;20.40;99.90;;;;;;4129830;28;20510;-65
2023/06/24 01:41:21;;;;;;;3.35;1.40;;;20.50;99.90;;;;;;4128502;28;20442;-71
2023/06/24 01:43:23;;;;;;;6.25;1.45;;;20.50;99.90;;;;;;4129252;28;20081;-63
2023/06/24 01:45:32;;;;;;;5.88;1.58;;;20.60;99.90;;;;;;4128501;28;20042;-61
2023/06/24 01:47:34;;;;;;;6.65;1.45;;;20.70;99.90;;;;;;4129408;28;20166;-61
2023/06/24 01:49:41;;;;;;;8.32;1.85;;;20.70;99.90;;;;;;4128255;28;20038;-63
2023/06/24 01:51:44;;;;;;;4.40;1.40;;;20.80;99.90;;;;;;4129364;28;20169;-63
2023/06/24 01:54:04;;;;;;;4.80;1.27;;;20.70;99.90;;;;;;4128722;28;20124;-62
2023/06/24 01:56:08;;;;;;;7.90;1.63;;;20.70;99.90;;;;;;4129570;28;20046;-61
2023/06/24 01:58:10;;;;;;;8.38;1.30;;;20.70;99.90;;;;;;4128184;28;20092;-61
2023/06/24 02:00:12;;;;;;;8.85;1.45;;;20.60;99.90;;;;;;4129333;28;20058;-62
2023/06/24 02:02:13;;;;;;;7.10;1.58;;;20.60;99.90;;;;;;4128763;28;20051;-64
2023/06/24 02:04:17;;;;;;;5.72;1.30;;;20.60;99.90;;;;;;4129329;28;20483;-67
2023/06/24 02:06:20;;;;;;;8.55;1.55;;;20.60;99.90;;;;;;4128635;28;20034;-64
2023/06/24 02:08:24;;;;;;;7.05;1.70;;;20.50;99.90;;;;;;4129772;28;20138;-66
2023/06/24 02:10:27;;;;;;;4.93;1.23;;;20.50;99.90;;;;;;4128184;28;20450;-64
2023/06/24 02:12:29;;;;;;;7.00;1.67;;;20.50;99.90;;;;;;4129958;28;20027;-64
2023/06/24 02:14:31;;;;;;;5.55;1.33;;;20.50;99.90;;;;;;4128116;28;20089;-64
2023/06/24 02:16:34;;;;;;;4.28;1.38;;;20.50;99.90;;;;;;4129188;28;20085;-61
2023/06/24 02:18:38;;;;;;;5.80;1.30;;;20.50;99.90;;;;;;4128904;28;20034;-63
2023/06/24 02:20:40;;;;;;;7.68;1.30;;;20.40;99.90;;;;;;4128498;28;20431;-62
2023/06/24 02:22:42;;;;;;;5.00;1.40;;;20.30;99.90;;;;;;4129015;28;20081;-69
2023/06/24 02:24:44;;;;;;;4.75;1.15;;;20.20;99.90;;;;;;4128020;28;20109;-62
2023/06/24 02:26:46;;;;;;;4.88;1.42;;;20.10;99.90;;;;;;4128652;28;20478;-62
2023/06/24 02:28:49;;;;;;;1.90;1.13;;;20.00;99.90;;;;;;4126000;28;20050;-62
2023/06/24 02:30:51;;;;;;;6.30;1.42;;;19.90;99.90;;;;;;4119876;28;20034;-61
2023/06/24 02:32:52;;;;;;;2.88;1.33;;;19.90;99.90;;;;;;4127555;28;20502;-62
2023/06/24 02:34:53;;;;;;;5.50;1.15;;;19.80;99.90;;;;;;4129369;28;20113;-63
2023/06/24 02:36:55;;;;;;;4.60;1.60;;;19.70;99.90;;;;;;4127967;28;20416;-61
2023/06/24 02:38:56;;;;;;;4.90;1.30;;;19.70;99.90;;;;;;4129122;28;20470;-61
2023/06/24 02:40:58;;;;;;;3.80;1.42;;;19.70;99.90;;;;;;4127832;28;20030;-65
2023/06/24 02:43:00;;;;;;;6.38;1.40;;;19.70;99.90;;;;;;4128939;28;20430;-68
2023/06/24 02:45:01;;;;;;;7.78;2.05;;;19.70;99.90;;;;;;4127025;28;20487;-62
2023/06/24 02:47:04;;;;;;;5.63;1.63;;;19.70;99.90;;;;;;4128629;28;20110;-64
2023/06/24 02:49:05;;;;;;;6.00;1.38;;;19.70;99.90;;;;;;4112010;28;20011;-63
2023/06/24 02:51:09;;;;;;;5.70;1.20;;;19.70;99.90;;;;;;4112332;28;20303;-66
2023/06/24 02:53:15;;;;;;;3.75;1.90;;;19.70;99.90;;;;;;4112337;28;20019;-65
2023/06/24 02:55:17;;;;;;;4.45;1.13;;;19.70;99.90;;;;;;4117920;28;20081;-63
2023/06/24 02:57:20;;;;;;;3.78;1.20;;;19.70;99.90;;;;;;4128611;28;20018;-66
2023/06/24 02:59:22;;;;;;;6.07;1.70;;;19.60;99.90;;;;;;4127018;28;20077;-66
2023/06/24 03:01:25;;;;;;;6.63;1.50;;;19.50;99.90;;;;;;4128910;28;20030;-64
2023/06/24 03:03:27;;;;;;;12.80;2.67;;;19.40;99.90;;;;;;4127836;28;20518;-67
2023/06/24 03:05:31;;;;;;;4.72;1.60;;;19.30;99.90;;;;;;4128878;28;20073;-69
2023/06/24 03:07:34;;;;;;;6.63;1.42;;;19.10;99.90;;;;;;4127626;28;20396;-64
2023/06/24 03:09:36;;;;;;;5.38;1.42;;;19.00;99.90;;;;;;4128276;28;20042;-66
2023/06/24 03:11:43;;;;;;;4.30;1.50;;;18.90;99.90;;;;;;4127430;28;20097;-66
2023/06/24 03:13:44;;;;;;;5.18;1.90;;;18.90;99.90;;;;;;4128908;28;20042;-68
2023/06/24 03:15:45;;;;;;;10.38;1.80;;;18.90;99.90;;;;;;4127036;28;20046;-62
2023/06/24 03:17:47;;;;;;;3.00;1.30;;;18.90;99.90;;;;;;4128211;28;20124;-62
2023/06/24 03:19:48;;;;;;;5.88;2.22;;;18.90;99.90;;;;;;4127085;28;20451;-61
2023/06/24 03:21:49;;;;;;;6.20;2.28;;;18.90;99.90;;;;;;4142619;28;20514;-64
2023/06/24 03:23:50;;;;;;;7.82;1.67;;;18.90;99.90;;;;;;4127318;28;20038;-62
2023/06/24 03:25:52;;;;;;;7.68;1.77;;;19.00;99.90;;;;;;4128227;28;20030;-64
2023/06/24 03:27:53;;;;;;;5.10;1.08;;;19.10;99.90;;;;;;4127881;28;20034;-61
2023/06/24 03:29:54;;;;;;;6.85;1.60;;;19.10;99.90;;;;;;4127607;28;20038;-62
2023/06/24 03:31:55;;;;;;;5.40;1.30;;;19.10;99.90;;;;;;4127729;28;20049;-64
2023/06/24 03:33:56;;;;;;;3.90;1.73;;;19.10;99.90;;;;;;4127398;28;20443;-63
2023/06/24 03:35:57;;;;;;;2.97;0.85;;;19.10;99.90;;;;;;4128183;28;20042;-63
2023/06/24 03:37:59;;;;;;;5.60;1.50;;;19.10;99.90;;;;;;4127167;28;20585;-62
2023/06/24 03:40:00;;;;;;;2.13;1.33;;;19.20;99.90;;;;;;4128199;28;20073;-67
2023/06/24 03:42:01;;;;;;;4.70;1.63;;;19.20;99.90;;;;;;4127395;28;20434;-61
2023/06/24 03:44:02;;;;;;;4.78;1.40;;;19.10;99.90;;;;;;4128905;28;20089;-62
2023/06/24 03:46:03;;;;;;;4.63;1.63;;;19.00;99.90;;;;;;4126834;28;20077;-61
2023/06/24 03:48:05;;;;;;;6.20;1.67;;;19.00;99.90;;;;;;4127587;28;20080;-61
2023/06/24 03:50:07;;;;;;;5.25;1.77;;;19.00;99.90;;;;;;4127366;28;20112;-62
2023/06/24 03:52:08;;;;;;;8.63;2.28;;;19.00;99.90;;;;;;4127524;28;20050;-60
2023/06/24 03:54:10;;;;;;;11.75;1.80;;;19.00;99.90;;;;;;4127493;28;20019;-60
2023/06/24 03:56:11;;;;;;;5.80;1.70;;;19.00;99.90;;;;;;4127585;28;20058;-62
2023/06/24 03:58:13;;;;;;;5.13;1.38;;;19.00;99.90;;;;;;4127795;28;20162;-63
2023/06/24 04:00:16;;;;;;;8.57;1.48;;;18.90;99.90;;;;;;4142780;28;20080;-60
2023/06/24 04:02:17;;;;;;;6.78;1.70;;;18.90;99.90;;;;;;4127122;28;20042;-62
2023/06/24 04:04:19;;;;;;;5.68;1.80;;;18.90;99.90;;;;;;4126948;28;20077;-63
2023/06/24 04:06:20;;;;;;;8.00;1.58;;;18.90;99.90;;;;;;4128369;28;20046;-64
2023/06/24 04:08:22;;;;;;;6.80;3.00;;;18.80;99.90;;;;;;4127013;28;20089;-63
2023/06/24 04:10:23;;;;;;;7.43;2.20;;;18.90;99.90;;;;;;4130428;28;20026;-63
2023/06/24 04:12:24;;;;;;;5.93;1.75;;;18.90;99.90;;;;;;4130452;28;20039;-62
2023/06/24 04:14:26;;;;;;;5.75;1.80;;;19.00;99.90;;;;;;4131412;28;20438;-62
2023/06/24 04:16:27;;;;;;;10.35;1.73;;;19.10;99.90;;;;;;4130384;28;20079;-62
2023/06/24 04:18:28;;;;;;;6.45;1.77;;;19.10;99.90;;;;;;4130885;28;20038;-65
2023/06/24 04:20:29;;;;;;;3.92;1.60;;;19.10;99.90;;;;;;4129676;28;20046;-62
2023/06/24 04:22:31;;;;;;;12.93;2.05;;;19.10;99.90;;;;;;4131227;28;20434;-60
2023/06/24 04:24:32;;;;;;;3.55;1.48;;;19.10;99.90;;;;;;4130186;28;20031;-63
2023/06/24 04:26:33;;;;;;;4.35;2.10;;;19.20;99.90;;;;;;4131136;28;20022;-63
2023/06/24 04:28:34;;;;;;;5.07;1.67;;;19.30;99.90;;;;;;4130678;28;20041;-61
2023/06/24 04:30:35;;;;;;;7.03;2.15;;;19.30;99.90;;;;;;4130641;28;20065;-67
2023/06/24 04:32:36;;;;;;;3.15;1.30;;;19.20;99.90;;;;;;4130952;28;20434;-61
2023/06/24 04:34:38;;;;;;;3.88;1.77;;;19.20;99.90;;;;;;4130211;28;20130;-62
2023/06/24 04:36:39;;;;;;;6.10;1.65;;;19.20;99.90;;;;;;4130373;28;20093;-64
2023/06/24 04:38:40;;;;;;;5.97;1.38;;;19.20;99.90;;;;;;4129404;28;20431;-62
2023/06/24 04:40:41;;;;;;;3.28;1.30;;;19.10;99.90;;;;;;4131365;28;20561;-61
2023/06/24 04:42:42;;;;;;;5.07;1.35;;;19.10;99.90;;;;;;4129763;28;20085;-62
2023/06/24 04:44:43;;;;;;;4.65;1.90;;;19.10;99.90;;;;;;4131354;28;20446;-63
2023/06/24 04:46:45;;;;;;;4.45;1.40;;;19.00;99.90;;;;;;4129890;28;20549;-62
2023/06/24 04:48:46;;;;;;;11.23;2.05;;;19.00;99.90;;;;;;4130928;28;20093;-62
2023/06/24 04:50:47;;;;;;;9.82;1.50;;;19.00;99.90;;;;;;4129153;28;20153;-64
2023/06/24 04:52:56;;;;;;;5.95;2.13;;;19.00;99.90;;;;;;4130237;28;20038;-62
2023/06/24 04:54:57;;;;;;;8.02;2.33;;;18.90;99.90;;;;;;4129818;28;20392;-62
2023/06/24 04:56:58;;;;;;;6.22;1.80;;;18.90;99.90;;;;;;4130512;28;20049;-60
2023/06/24 04:59:00;;;;;;;3.38;1.35;;;18.90;99.90;;;;;;4129203;28;20046;-62
2023/06/24 05:01:01;;;;;;;7.57;1.45;;;18.90;99.90;;;;;;4130197;28;20074;-63
2023/06/24 05:03:02;;;;;;;6.28;1.48;;;18.90;99.90;;;;;;4130248;28;20462;-61
2023/06/24 05:05:04;;;;;;;3.55;1.10;;;19.00;99.90;;;;;;4129920;28;20900;-63
2023/06/24 05:07:05;;;;;;;6.60;1.17;;;19.10;99.90;;;;;;4130321;28;20026;-62
2023/06/24 05:09:06;;;;;;;3.65;1.20;;;19.20;99.90;;;;;;4129033;28;20022;-62
2023/06/24 05:11:07;;;;;;;4.50;1.20;;;19.20;99.90;;;;;;4130446;28;20330;-62
2023/06/24 05:13:08;;;;;;;5.22;1.60;;;19.20;99.90;;;;;;4128991;28;20034;-61
2023/06/24 05:15:10;;;;;;;3.40;1.38;;;19.30;99.90;;;;;;4129550;28;20372;-62
2023/06/24 05:17:11;;;;;;;5.22;1.63;;;19.40;99.90;;;;;;4129089;28;20035;-63
2023/06/24 05:19:12;;;;;;;5.05;1.80;;;19.40;99.90;;;;;;4129916;28;20042;-62
2023/06/24 05:21:13;;;;;;;6.40;1.80;;;19.50;99.90;;;;;;4128200;28;20510;-61
2023/06/24 05:23:14;;;;;;;4.38;1.55;;;19.60;99.90;;;;;;4130182;28;20089;-62
2023/06/24 05:25:15;;;;;;;3.80;1.27;;;19.60;99.90;;;;;;4129222;28;20030;-62
2023/06/24 05:27:17;;;;;;;7.95;2.10;;;19.80;99.90;;;;;;4128287;28;20077;-61
2023/06/24 05:29:18;;;;;;;3.28;1.38;;;19.90;99.90;;;;;;4128543;28;20092;-64
2023/06/24 05:31:20;;;;;;;3.90;1.33;;;20.00;99.90;;;;;;4129714;28;20443;-63
2023/06/24 05:33:21;;;;;;;3.58;1.38;;;20.10;99.90;;;;;;4129217;28;20502;-66
2023/06/24 05:35:22;;;;;;;5.55;1.55;;;20.30;99.90;;;;;;4129417;28;20089;-63
2023/06/24 05:37:23;;;;;;;5.60;1.90;;;20.40;99.90;;;;;;4129201;28;20049;-62
2023/06/24 05:39:24;;;;;;;6.57;2.10;;;20.50;99.90;;;;;;4128835;28;20430;-66
2023/06/24 05:41:26;;;;;;;4.18;1.40;;;20.70;99.90;;;;;;4129424;28;20479;-64
2023/06/24 05:43:27;;;;;;;6.97;1.95;;;20.80;99.90;;;;;;4128587;28;20443;-62
2023/06/24 05:45:28;;;;;;;6.03;1.50;;;20.90;99.90;;;;;;4130122;28;20037;-66
2023/06/24 05:47:30;;;;;;;6.72;1.63;;;21.00;99.90;;;;;;4128210;28;20050;-62
2023/06/24 05:49:31;;;;;;;9.05;3.10;;;21.10;99.90;;;;;;4129497;28;20031;-60
2023/06/24 05:51:32;;;;;;;7.65;2.55;;;21.10;99.90;;;;;;4128659;28;20026;-61
2023/06/24 05:53:33;;;;;;;12.85;2.53;;;21.20;99.90;;;;;;4128408;28;20073;-63
2023/06/24 05:55:34;;;;;;;9.85;2.95;;;21.20;99.90;;;;;;4127143;28;20046;-63
2023/06/24 05:57:36;;;;;;;12.18;3.00;;;21.30;99.90;;;;;;4129743;28;20038;-63
2023/06/24 05:59:37;;;;;;;20.08;3.90;;;21.40;99.90;;;;;;4128640;28;20026;-62
2023/06/24 06:01:39;;;;;;;11.48;3.15;;;21.60;99.90;;;;;;4128525;28;20054;-61
2023/06/24 06:03:40;;;;;;;13.48;2.97;;;21.80;99.90;;;;;;4128712;28;20093;-62
2023/06/24 06:05:41;;;;;;;8.52;2.55;;;21.90;99.90;;;;;;4128929;28;20672;-67
2023/06/24 06:07:43;;;;;;;6.32;1.95;;;22.00;99.90;;;;;;4129005;28;20034;-63
2023/06/24 06:09:44;;;;;;;12.80;2.35;;;22.10;99.90;;;;;;4128319;28;20581;-62
2023/06/24 06:11:45;;;;;;;7.95;1.75;;;22.30;99.90;;;;;;4129090;28;20526;-63
2023/06/24 06:13:46;;;;;;;4.35;1.10;;;22.40;99.90;;;;;;4128153;28;20034;-63
2023/06/24 06:15:48;;;;;;;11.52;1.92;;;22.60;99.90;;;;;;4129094;28;20046;-61
2023/06/24 06:17:49;;;;;;;3.72;1.65;;;22.70;99.90;;;;;;4128370;28;20089;-60
2023/06/24 06:19:50;;;;;;;4.18;2.78;;;22.80;99.90;;;;;;4129361;28;20454;-63
2023/06/24 06:21:51;;;;;;;11.82;3.35;;;22.90;99.90;;;;;;4128144;28;20038;-63
2023/06/24 06:23:53;;;;;;;13.27;4.70;;;23.10;99.90;;;;;;4128788;28;20042;-61
2023/06/24 06:25:54;;;;;;;9.75;3.25;;;23.30;99.90;;;;;;4127726;28;20998;-61
2023/06/24 06:27:55;;;;;;;8.55;2.90;;;23.30;99.90;;;;;;4129063;28;20471;-66
2023/06/24 06:29:56;;;;;;;6.03;1.80;;;23.40;99.90;;;;;;4128258;28;20057;-61
2023/06/24 06:31:57;;;;;;;11.82;2.20;;;23.50;99.90;;;;;;4128666;28;20046;-71
2023/06/24 06:33:58;;;;;;;9.35;2.28;;;23.60;99.90;;;;;;4127065;28;20533;-63
2023/06/24 06:35:59;;;;;;;5.28;2.05;;;23.60;99.90;;;;;;4127652;28;20128;-61
2023/06/24 06:38:00;;;;;;;4.13;1.20;;;23.90;99.90;;;;;;4128011;28;20105;-63
2023/06/24 06:40:02;;;;;;;11.10;1.92;;;24.10;99.90;;;;;;4143009;28;20544;-61
2023/06/24 06:42:04;;;;;;;7.13;1.90;;;24.40;99.90;;;;;;4145065;28;20029;-62
2023/06/24 06:44:05;;;;;;;7.88;2.50;;;24.60;99.90;;;;;;4144210;28;20030;-62
2023/06/24 06:46:06;;;;;;;5.90;1.55;;;24.90;99.90;;;;;;4136488;28;20026;-63
2023/06/24 06:48:08;;;;;;;4.55;1.75;;;25.00;99.90;;;;;;4126680;28;20466;-61
2023/06/24 06:50:09;;;;;;;6.32;1.70;;;25.20;99.90;;;;;;4128428;28;20031;-62
2023/06/24 06:52:11;;;;;;;10.85;4.88;;;25.30;99.90;;;;;;4125584;28;20109;-62
2023/06/24 06:54:12;;;;;;;6.20;2.60;;;25.30;99.90;;;;;;4127681;28;20487;-68
2023/06/24 06:56:22;;;;;;;10.02;2.38;;;25.40;99.90;;;;;;4127344;28;20046;-62
2023/06/24 06:58:24;;;;;;;12.10;2.83;;;25.70;99.90;;;;;;4124402;28;20039;-66
2023/06/24 07:00:25;;;;;;;8.20;1.92;;;26.00;99.90;;;;;;4121166;28;20039;-72
2023/06/24 07:02:26;;;;;;;6.30;1.92;;;26.20;99.90;;;;;;4112733;28;20063;-71
2023/06/24 07:04:27;;;;;;;7.93;1.88;;;26.10;99.90;;;;;;4117141;28;20026;-65
2023/06/24 07:06:28;;;;;;;5.70;2.00;;;25.90;99.90;;;;;;4128107;28;20070;-69
2023/06/24 07:08:29;;;;;;;4.03;1.92;;;25.90;99.90;;;;;;4127016;28;20023;-63
2023/06/24 07:10:30;;;;;;;6.60;2.30;;;26.00;99.90;;;;;;4126626;28;20446;-64
2023/06/24 07:12:32;;;;;;;12.20;2.05;;;26.20;99.90;;;;;;4127474;28;20089;-66
2023/06/24 07:14:33;;;;;;;7.25;2.50;;;26.50;99.90;;;;;;4127482;28;20022;-62
2023/06/24 07:16:34;;;;;;;9.88;2.05;;;26.80;99.90;;;;;;4127669;28;20491;-62
2023/06/24 07:18:35;;;;;;;5.13;2.08;;;26.90;99.90;;;;;;4134765;28;20172;-62
2023/06/24 07:20:36;;;;;;;12.07;1.92;;;26.80;99.90;;;;;;4116892;28;20054;-63
2023/06/24 07:22:37;;;;;;;5.50;2.05;;;26.60;99.90;;;;;;4126096;28;20104;-64
2023/06/24 07:24:38;;;;;;;10.73;3.03;;;26.50;99.90;;;;;;4142683;28;20041;-62
2023/06/24 07:26:39;;;;;;;7.78;2.03;;;26.20;99.90;;;;;;4142302;28;20377;-62
2023/06/24 07:28:41;;;;;;;13.10;2.67;;;25.90;99.90;;;;;;4144295;28;20037;-62
2023/06/24 07:30:42;;;;;;;20.20;4.00;;;25.90;99.90;;;;;;4143178;28;20038;-63
2023/06/24 07:32:43;;;;;;;11.38;2.97;;;25.70;99.90;;;;;;4144187;28;20053;-69
2023/06/24 07:34:44;;;;;;;6.85;1.98;;;25.80;99.90;;;;;;4134801;28;20014;-67
2023/06/24 07:36:45;;;;;;;8.77;1.80;;;26.00;99.90;;;;;;4126681;28;20038;-62
2023/06/24 07:38:46;;;;;;;5.70;1.73;;;26.20;99.90;;;;;;4126929;28;20046;-67
2023/06/24 07:40:48;;;;;;;7.30;1.30;;;26.20;99.90;;;;;;4125858;28;20096;-63
2023/06/24 07:42:49;;;;;;;3.58;1.58;;;26.50;99.90;;;;;;4127755;28;20032;-63
2023/06/24 07:44:50;;;;;;;6.93;1.58;;;26.70;99.90;;;;;;4130284;28;20030;-63
2023/06/24 07:46:51;;;;;;;5.05;1.65;;;26.80;99.90;;;;;;4132592;28;20095;-66
2023/06/24 07:48:52;;;;;;;57.90;7.97;;;26.90;99.90;;;;;;4130368;28;20475;-65
2023/06/24 07:50:54;;;;;;;46.67;6.75;;;26.70;99.90;;;;;;4131865;28;20026;-64
2023/06/24 07:52:55;;;;;;;43.88;5.78;;;26.70;99.90;;;;;;4130121;28;20126;-62
2023/06/24 07:54:56;;;;;;;13.35;2.88;;;26.70;99.90;;;;;;4131611;28;20154;-62
2023/06/24 07:56:57;;;;;;;5.13;1.50;;;26.80;99.90;;;;;;4130385;28;20038;-64
2023/06/24 07:58:58;;;;;;;8.05;1.80;;;27.10;99.90;;;;;;4131313;28;20030;-62
2023/06/24 08:00:59;;;;;;;3.42;0.73;;;27.20;99.90;;;;;;4130273;28;20108;-62
2023/06/24 08:03:01;;;;;;;4.80;1.65;;;27.30;99.90;;;;;;4131369;28;20030;-64
2023/06/24 08:05:02;;;;;;;2.35;0.75;;;27.40;99.70;;;;;;4130248;28;20096;-63
2023/06/24 08:07:04;;;;;;;10.88;1.85;;;27.70;99.30;;;;;;4130334;28;20475;-65
2023/06/24 08:09:05;;;;;;;33.00;5.50;;;27.70;98.60;;;;;;4130524;28;20462;-64
2023/06/24 08:11:06;;;;;;;21.70;3.92;;;27.70;98.30;;;;;;4130262;28;20058;-66
2023/06/24 08:13:07;;;;;;;7.68;1.83;;;27.80;98.30;;;;;;4128997;28;20088;-68
2023/06/24 08:15:09;;;;;;;12.18;2.70;;;28.00;98.10;;;;;;4130193;28;20452;-66
2023/06/24 08:17:10;;;;;;;12.00;1.40;;;28.20;97.60;;;;;;4130884;28;20046;-69
2023/06/24 08:19:11;;;;;;;38.00;5.47;;;28.30;97.20;;;;;;4129487;28;20058;-66
2023/06/24 08:21:12;;;;;;;20.25;2.95;;;28.40;96.90;;;;;;4130515;28;20038;-69
2023/06/24 08:23:13;;;;;;;13.43;2.03;;;28.40;96.70;;;;;;4129822;28;20137;-68
2023/06/24 08:25:15;;;;;;;1.63;0.77;;;28.60;96.20;;;;;;4130940;28;20031;-69
2023/06/24 08:27:16;;;;;;;5.43;1.02;;;28.30;95.70;;;;;;4128913;28;20542;-68
2023/06/24 08:29:17;;;;;;;5.07;0.98;;;28.30;95.90;;;;;;4130637;28;20034;-69
2023/06/24 08:31:22;;;;;;;3.38;1.13;;;28.60;95.80;;;;;;4127524;28;20031;-64
2023/06/24 08:33:23;;;;;;;2.45;0.85;;;28.70;95.90;;;;;;4114302;28;20026;-62
2023/06/24 08:35:24;;;;;;;5.60;1.20;;;29.00;95.80;;;;;;4113278;28;20431;-70
2023/06/24 08:37:25;;;;;;;4.68;1.08;;;29.10;96.20;;;;;;4113318;28;20050;-74
2023/06/24 08:39:27;;;;;;;5.15;1.25;;;29.20;96.20;;;;;;4122018;28;20039;-62
2023/06/24 08:41:28;;;;;;;65.35;10.30;;;29.40;96.70;;;;;;4125897;28;20081;-63
2023/06/24 08:43:29;;;;;;;9.35;1.98;;;29.40;97.20;;;;;;4129790;28;20077;-63
2023/06/24 08:45:30;;;;;;;6.40;1.60;;;29.50;97.40;;;;;;4127574;28;20817;-67
2023/06/24 08:47:32;;;;;;;5.43;1.35;;;29.30;97.70;;;;;;4129759;28;20042;-63
2023/06/24 08:49:38;;;;;;;4.15;1.17;;;29.30;97.90;;;;;;4129005;28;20097;-65
2023/06/24 08:51:41;;;;;;;5.95;1.10;;;29.20;97.80;;;;;;4129879;28;20034;-63
2023/06/24 08:53:46;;;;;;;3.95;1.20;;;29.30;97.70;;;;;;4126955;28;20108;-70
2023/06/24 08:55:51;;;;;;;4.03;1.63;;;29.50;97.70;;;;;;4129459;28;20030;-64
2023/06/24 08:57:53;;;;;;;8.18;2.03;;;29.40;97.40;;;;;;4127955;28;20100;-68
2023/06/24 08:59:54;;;;;;;3.47;1.35;;;28.90;97.30;;;;;;4129709;28;20104;-65
2023/06/24 09:01:55;;;;;;;7.20;1.48;;;28.90;97.80;;;;;;4128388;28;20058;-69
2023/06/24 09:03:56;;;;;;;7.35;1.50;;;29.00;97.90;;;;;;4128694;28;20066;-65
2023/06/24 09:05:57;;;;;;;4.35;1.20;;;28.70;97.90;;;;;;4129265;28;20042;-67
2023/06/24 09:07:58;;;;;;;5.35;1.65;;;28.40;98.20;;;;;;4129706;28;20035;-65
2023/06/24 09:10:03;;;;;;;6.35;1.33;;;28.40;98.40;;;;;;4129329;28;20064;-66
2023/06/24 09:12:14;;;;;;;3.85;1.17;;;28.40;98.40;;;;;;4129376;28;20077;-66
2023/06/24 09:14:16;;;;;;;89.82;13.52;;;28.10;98.60;;;;;;4128918;28;20072;-70
2023/06/24 09:16:17;;;;;;;17.25;3.00;;;28.20;98.60;;;;;;4129147;28;20375;-63
2023/06/24 09:18:18;;;;;;;38.72;5.60;;;28.00;98.80;;;;;;4129350;28;20042;-66
2023/06/24 09:20:21;;;;;;;69.75;10.13;;;27.80;98.90;;;;;;4128760;28;20084;-62
2023/06/24 09:22:22;;;;;;;68.15;10.27;;;27.60;99.30;;;;;;4129403;28;20405;-69
2023/06/24 09:24:28;;;;;;;15.57;2.95;;;27.70;99.70;;;;;;4128682;28;20553;-68
2023/06/24 09:26:30;;;;;;;52.53;7.97;;;27.70;98.70;;;;;;4130117;28;20026;-60
2023/06/24 09:28:31;;;;;;;20.67;3.33;;;27.40;98.90;;;;;;4128856;28;20434;-61
2023/06/24 09:30:32;;;;;;;9.05;2.15;;;27.60;99.00;;;;;;4129576;28;20042;-65
2023/06/24 09:32:34;;;;;;;4.13;1.40;;;27.60;98.90;;;;;;4127985;28;20077;-62
2023/06/24 09:34:36;;;;;;;3.70;0.95;;;27.80;98.90;;;;;;4129564;28;20031;-61
2023/06/24 09:36:42;;;;;;;23.17;3.15;;;27.80;98.50;;;;;;4126004;28;20141;-62
2023/06/24 09:38:44;;;;;;;20.45;4.07;;;27.80;98.90;;;;;;4126597;28;20064;-63
2023/06/24 09:40:45;;;;;;;7.03;1.55;;;27.90;99.40;;;;;;4129048;28;20022;-63
2023/06/24 09:42:54;;;;;;;4.70;1.40;;;28.10;99.20;;;;;;4129457;28;20105;-63
2023/06/24 09:44:55;;;;;;;5.55;1.70;;;28.20;99.90;;;;;;4127974;28;20038;-61
2023/06/24 09:46:57;;;;;;;3.60;1.30;;;28.20;99.80;;;;;;4129403;28;20093;-66
2023/06/24 09:48:58;;;;;;;9.02;2.28;;;28.00;99.90;;;;;;4127544;28;20146;-63
2023/06/24 09:51:01;;;;;;;10.90;3.05;;;28.00;99.90;;;;;;4129568;28;20027;-65
2023/06/24 09:53:04;;;;;;;7.05;1.55;;;28.00;99.80;;;;;;4129255;28;20071;-64
2023/06/24 09:55:06;;;;;;;81.78;11.55;;;27.80;99.60;;;;;;4128906;28;20018;-62
2023/06/24 09:57:09;;;;;;;36.78;6.47;;;27.80;99.80;;;;;;4127816;28;20058;-63
2023/06/24 09:59:12;;;;;;;3.38;1.40;;;27.80;99.70;;;;;;4112246;28;20400;-64
2023/06/24 10:01:14;;;;;;;12.63;2.60;;;27.40;99.30;;;;;;4113285;28;20058;-71
2023/06/24 10:03:15;;;;;;;9.98;2.40;;;27.20;99.50;;;;;;4128110;28;20027;-63
2023/06/24 10:05:16;;;;;;;25.48;3.63;;;27.30;99.90;;;;;;4129312;28;20142;-68
2023/06/24 10:07:18;;;;;;;13.57;1.83;;;27.50;99.90;;;;;;4127907;28;20089;-64
2023/06/24 10:09:19;;;;;;;4.95;1.73;;;27.70;99.90;;;;;;4122861;28;20425;-66
2023/06/24 10:11:21;;;;;;;5.53;1.90;;;27.90;99.90;;;;;;4144181;28;20108;-62
2023/06/24 10:13:23;;;;;;;7.22;1.52;;;27.90;99.90;;;;;;4113456;28;20476;-62
2023/06/24 10:15:24;;;;;;;5.00;1.92;;;28.10;99.90;;;;;;4112768;28;20396;-64
2023/06/24 10:17:25;;;;;;;6.25;1.25;;;28.30;99.90;;;;;;4111393;28;20103;-63
2023/06/24 10:19:27;;;;;;;4.72;1.52;;;28.00;99.90;;;;;;4111759;28;20108;-67
2023/06/24 10:21:47;;;;;;;8.70;1.65;;;27.90;99.90;;;;;;4122756;28;20137;-61
2023/06/24 10:23:48;;;;;;;13.98;1.80;;;28.00;99.90;;;;;;4126320;28;20549;-60
2023/06/24 10:25:50;;;;;;;11.38;2.67;;;27.90;99.90;;;;;;4127952;28;20050;-61
2023/06/24 10:27:53;;;;;;;4.38;1.20;;;28.10;99.90;;;;;;4127876;28;20026;-60
2023/06/24 10:29:56;;;;;;;5.22;1.20;;;28.20;99.90;;;;;;4128443;28;20042;-60
2023/06/24 10:32:02;;;;;;;7.43;1.67;;;28.30;99.90;;;;;;4127433;28;20104;-61
2023/06/24 10:34:25;;;;;;;6.00;1.98;;;28.00;99.90;;;;;;4127102;28;20561;-60
2023/06/24 10:36:32;;;;;;;34.63;6.47;;;28.10;99.90;;;;;;4127015;28;20030;-60